sensor_id;sensor_type;location;lat;lon;timestamp;temperature;humidity
2407;DHT22;37709;53.480;9.688;2023-04-03T00:01:16;-3.70;99.90
2407;DHT22;37709;53.480;9.688;2023-04-03T00:03:44;-3.80;99.90
2407;DHT22;37709;53.480;9.688;2023-04-03T00:06:12;-3.80;99.90
2407;DHT22;37709;53.480;9.688;2023-04-03T00:08:40;-3.80;99.90
2407;DHT22;37709;53.480;9.688;2023-04-03T00:11:08;-3.80;99.90
2407;DHT22;37709;53.480;9.688;2023-04-03T00:13:37;-3.90;99.90
2407;DHT22;37709;53.480;9.688;2023-04-03T00:16:06;-3.90;99.90
2407;DHT22;37709;53.480;9.688;2023-04-03T00:18:33;-3.90;99.90
2407;DHT22;37709;53.480;9.688;2023-04-03T00:21:00;-3.80;99.90
2407;DHT22;37709;53.480;9.688;2023-04-03T00:23:28;-3.90;99.90
2407;DHT22;37709;53.480;9.688;2023-04-03T00:25:55;-4.00;99.90
2407;DHT22;37709;53.480;9.688;2023-04-03T00:28:22;-4.00;99.90
2407;DHT22;37709;53.480;9.688;2023-04-03T00:30:50;-4.00;99.90
2407;DHT22;37709;53.480;9.688;2023-04-03T00:33:18;-4.00;99.90
2407;DHT22;37709;53.480;9.688;2023-04-03T00:35:49;-4.00;99.90
2407;DHT22;37709;53.480;9.688;2023-04-03T00:38:17;-4.00;99.90
2407;DHT22;37709;53.480;9.688;2023-04-03T00:40:46;-4.00;99.90
2407;DHT22;37709;53.480;9.688;2023-04-03T00:43:24;-4.10;99.90
2407;DHT22;37709;53.480;9.688;2023-04-03T00:45:57;-4.20;99.90
2407;DHT22;37709;53.480;9.688;2023-04-03T00:48:29;-4.20;99.90
2407;DHT22;37709;53.480;9.688;2023-04-03T00:50:58;-4.30;99.90
2407;DHT22;37709;53.480;9.688;2023-04-03T00:53:31;-4.40;99.90
2407;DHT22;37709;53.480;9.688;2023-04-03T00:56:00;-4.50;99.90
2407;DHT22;37709;53.480;9.688;2023-04-03T00:58:36;-4.40;99.90
2407;DHT22;37709;53.480;9.688;2023-04-03T01:01:08;-4.40;99.90
2407;DHT22;37709;53.480;9.688;2023-04-03T01:03:37;-4.30;99.90
2407;DHT22;37709;53.480;9.688;2023-04-03T01:06:05;-4.40;99.90
2407;DHT22;37709;53.480;9.688;2023-04-03T01:08:33;-4.40;99.90
2407;DHT22;37709;53.480;9.688;2023-04-03T01:11:02;-4.30;99.90
2407;DHT22;37709;53.480;9.688;2023-04-03T01:13:31;-4.50;99.90
2407;DHT22;37709;53.480;9.688;2023-04-03T01:16:04;-4.50;99.90
2407;DHT22;37709;53.480;9.688;2023-04-03T01:18:32;-4.20;99.90
2407;DHT22;37709;53.480;9.688;2023-04-03T01:24:31;-4.50;99.90
2407;DHT22;37709;53.480;9.688;2023-04-03T01:27:03;-4.60;99.90
2407;DHT22;37709;53.480;9.688;2023-04-03T01:29:32;-4.60;99.90
2407;DHT22;37709;53.480;9.688;2023-04-03T01:32:00;-4.60;99.90
2407;DHT22;37709;53.480;9.688;2023-04-03T01:34:29;-4.60;99.90
2407;DHT22;37709;53.480;9.688;2023-04-03T01:36:58;-4.60;99.90
2407;DHT22;37709;53.480;9.688;2023-04-03T01:39:26;-4.70;99.90
2407;DHT22;37709;53.480;9.688;2023-04-03T01:41:53;-4.70;99.90
2407;DHT22;37709;53.480;9.688;2023-04-03T01:44:29;-4.60;99.90
2407;DHT22;37709;53.480;9.688;2023-04-03T01:46:57;-4.60;99.90
2407;DHT22;37709;53.480;9.688;2023-04-03T01:49:26;-4.60;99.90
2407;DHT22;37709;53.480;9.688;2023-04-03T01:51:55;-4.70;99.90
2407;DHT22;37709;53.480;9.688;2023-04-03T01:54:22;-4.70;99.90
2407;DHT22;37709;53.480;9.688;2023-04-03T01:56:50;-4.70;99.90
2407;DHT22;37709;53.480;9.688;2023-04-03T01:59:19;-4.60;99.90
2407;DHT22;37709;53.480;9.688;2023-04-03T02:01:47;-4.70;99.90
2407;DHT22;37709;53.480;9.688;2023-04-03T02:04:14;-4.60;99.90
2407;DHT22;37709;53.480;9.688;2023-04-03T02:06:42;-4.50;99.90
2407;DHT22;37709;53.480;9.688;2023-04-03T02:09:10;-4.50;99.90
2407;DHT22;37709;53.480;9.688;2023-04-03T02:11:38;-4.50;99.90
2407;DHT22;37709;53.480;9.688;2023-04-03T02:14:05;-4.50;99.90
2407;DHT22;37709;53.480;9.688;2023-04-03T02:16:32;-4.30;99.90
2407;DHT22;37709;53.480;9.688;2023-04-03T02:18:59;-4.30;99.90
2407;DHT22;37709;53.480;9.688;2023-04-03T02:21:28;-4.30;99.90
2407;DHT22;37709;53.480;9.688;2023-04-03T02:23:55;-4.40;99.90
2407;DHT22;37709;53.480;9.688;2023-04-03T02:26:23;-4.50;99.90
2407;DHT22;37709;53.480;9.688;2023-04-03T02:28:50;-4.60;99.90
2407;DHT22;37709;53.480;9.688;2023-04-03T02:31:18;-4.70;99.90
2407;DHT22;37709;53.480;9.688;2023-04-03T02:33:46;-4.70;99.90
2407;DHT22;37709;53.480;9.688;2023-04-03T02:36:15;-4.70;99.90
2407;DHT22;37709;53.480;9.688;2023-04-03T02:38:47;-4.80;99.90
2407;DHT22;37709;53.480;9.688;2023-04-03T02:41:15;-4.80;99.90
2407;DHT22;37709;53.480;9.688;2023-04-03T02:43:42;-4.80;99.90
2407;DHT22;37709;53.480;9.688;2023-04-03T02:46:10;-4.80;99.90
2407;DHT22;37709;53.480;9.688;2023-04-03T02:48:37;-4.80;99.90
2407;DHT22;37709;53.480;9.688;2023-04-03T02:51:05;-4.80;99.90
2407;DHT22;37709;53.480;9.688;2023-04-03T02:53:32;-4.80;99.90
2407;DHT22;37709;53.480;9.688;2023-04-03T02:56:06;-4.70;99.90
2407;DHT22;37709;53.480;9.688;2023-04-03T02:58:33;-4.70;99.90
2407;DHT22;37709;53.480;9.688;2023-04-03T03:01:02;-4.80;99.90
2407;DHT22;37709;53.480;9.688;2023-04-03T03:03:30;-4.80;99.90
2407;DHT22;37709;53.480;9.688;2023-04-03T03:06:24;-4.80;99.90
2407;DHT22;37709;53.480;9.688;2023-04-03T03:08:52;-4.90;99.90
2407;DHT22;37709;53.480;9.688;2023-04-03T03:11:19;-4.90;99.90
2407;DHT22;37709;53.480;9.688;2023-04-03T03:13:47;-4.90;99.90
2407;DHT22;37709;53.480;9.688;2023-04-03T03:16:14;-5.00;99.90
2407;DHT22;37709;53.480;9.688;2023-04-03T03:18:42;-4.90;99.90
2407;DHT22;37709;53.480;9.688;2023-04-03T03:21:09;-4.90;99.90
2407;DHT22;37709;53.480;9.688;2023-04-03T03:23:37;-5.00;99.90
2407;DHT22;37709;53.480;9.688;2023-04-03T03:26:08;-5.00;99.90
2407;DHT22;37709;53.480;9.688;2023-04-03T03:28:37;-5.10;99.90
2407;DHT22;37709;53.480;9.688;2023-04-03T03:31:06;-4.90;99.90
2407;DHT22;37709;53.480;9.688;2023-04-03T03:33:36;-5.00;99.90
2407;DHT22;37709;53.480;9.688;2023-04-03T03:36:03;-4.90;99.90
2407;DHT22;37709;53.480;9.688;2023-04-03T03:38:31;-4.90;99.90
2407;DHT22;37709;53.480;9.688;2023-04-03T03:41:00;-5.00;99.90
2407;DHT22;37709;53.480;9.688;2023-04-03T03:43:28;-5.10;99.90
2407;DHT22;37709;53.480;9.688;2023-04-03T03:45:55;-5.20;99.90
2407;DHT22;37709;53.480;9.688;2023-04-03T03:48:24;-5.20;99.90
2407;DHT22;37709;53.480;9.688;2023-04-03T03:50:52;-5.30;99.90
2407;DHT22;37709;53.480;9.688;2023-04-03T03:53:24;-5.30;99.90
2407;DHT22;37709;53.480;9.688;2023-04-03T03:55:55;-5.20;99.90
2407;DHT22;37709;53.480;9.688;2023-04-03T03:58:25;-5.20;99.90
2407;DHT22;37709;53.480;9.688;2023-04-03T04:00:52;-5.20;99.90
2407;DHT22;37709;53.480;9.688;2023-04-03T04:03:19;-5.20;99.90
2407;DHT22;37709;53.480;9.688;2023-04-03T04:05:49;-5.20;99.90
2407;DHT22;37709;53.480;9.688;2023-04-03T04:08:17;-5.30;99.90
2407;DHT22;37709;53.480;9.688;2023-04-03T04:10:45;-5.40;99.90
2407;DHT22;37709;53.480;9.688;2023-04-03T04:13:15;-5.50;99.90
2407;DHT22;37709;53.480;9.688;2023-04-03T04:15:42;-5.50;99.90
2407;DHT22;37709;53.480;9.688;2023-04-03T04:18:10;-5.50;99.90
2407;DHT22;37709;53.480;9.688;2023-04-03T04:20:40;-5.60;99.90
2407;DHT22;37709;53.480;9.688;2023-04-03T04:23:07;-5.60;99.90
2407;DHT22;37709;53.480;9.688;2023-04-03T04:25:36;-5.60;99.90
2407;DHT22;37709;53.480;9.688;2023-04-03T04:28:05;-5.60;99.90
2407;DHT22;37709;53.480;9.688;2023-04-03T04:30:32;-5.50;99.90
2407;DHT22;37709;53.480;9.688;2023-04-03T04:33:00;-5.40;99.90
2407;DHT22;37709;53.480;9.688;2023-04-03T04:35:29;-5.40;99.90
2407;DHT22;37709;53.480;9.688;2023-04-03T04:37:56;-5.50;99.90
2407;DHT22;37709;53.480;9.688;2023-04-03T04:40:24;-5.50;99.90
2407;DHT22;37709;53.480;9.688;2023-04-03T04:42:51;-5.40;99.90
2407;DHT22;37709;53.480;9.688;2023-04-03T04:45:19;-5.50;99.90
2407;DHT22;37709;53.480;9.688;2023-04-03T04:47:47;-5.50;99.90
2407;DHT22;37709;53.480;9.688;2023-04-03T04:50:15;-5.50;99.90
2407;DHT22;37709;53.480;9.688;2023-04-03T04:52:44;-5.50;99.90
2407;DHT22;37709;53.480;9.688;2023-04-03T04:55:11;-5.50;99.90
2407;DHT22;37709;53.480;9.688;2023-04-03T04:57:39;-5.50;99.90
2407;DHT22;37709;53.480;9.688;2023-04-03T05:00:07;-5.50;99.90
2407;DHT22;37709;53.480;9.688;2023-04-03T05:02:35;-5.50;99.90
2407;DHT22;37709;53.480;9.688;2023-04-03T05:05:03;-5.50;99.90
2407;DHT22;37709;53.480;9.688;2023-04-03T05:07:32;-5.50;99.90
2407;DHT22;37709;53.480;9.688;2023-04-03T05:10:03;-5.40;99.90
2407;DHT22;37709;53.480;9.688;2023-04-03T05:12:32;-5.40;99.90
2407;DHT22;37709;53.480;9.688;2023-04-03T05:15:03;-5.40;99.90
2407;DHT22;37709;53.480;9.688;2023-04-03T05:17:31;-5.40;99.90
2407;DHT22;37709;53.480;9.688;2023-04-03T05:19:59;-5.40;99.90
2407;DHT22;37709;53.480;9.688;2023-04-03T05:22:28;-5.30;99.90
2407;DHT22;37709;53.480;9.688;2023-04-03T05:25:00;-5.30;99.90
2407;DHT22;37709;53.480;9.688;2023-04-03T05:27:27;-5.20;99.90
2407;DHT22;37709;53.480;9.688;2023-04-03T05:29:57;-5.10;99.90
2407;DHT22;37709;53.480;9.688;2023-04-03T05:32:25;-5.00;99.90
2407;DHT22;37709;53.480;9.688;2023-04-03T05:35:10;-4.90;99.90
2407;DHT22;37709;53.480;9.688;2023-04-03T05:37:38;-4.70;99.90
2407;DHT22;37709;53.480;9.688;2023-04-03T05:40:07;-4.70;99.90
2407;DHT22;37709;53.480;9.688;2023-04-03T05:42:37;-4.60;99.90
2407;DHT22;37709;53.480;9.688;2023-04-03T05:45:06;-4.60;99.90
2407;DHT22;37709;53.480;9.688;2023-04-03T05:47:33;-4.50;99.90
2407;DHT22;37709;53.480;9.688;2023-04-03T05:50:00;-4.50;99.90
2407;DHT22;37709;53.480;9.688;2023-04-03T05:52:30;-4.50;99.90
2407;DHT22;37709;53.480;9.688;2023-04-03T05:54:59;-4.40;99.90
2407;DHT22;37709;53.480;9.688;2023-04-03T05:57:29;-4.30;99.90
2407;DHT22;37709;53.480;9.688;2023-04-03T05:59:57;-4.20;99.90
2407;DHT22;37709;53.480;9.688;2023-04-03T06:02:25;-4.00;99.90
2407;DHT22;37709;53.480;9.688;2023-04-03T06:04:57;-4.00;99.90
2407;DHT22;37709;53.480;9.688;2023-04-03T06:07:26;-3.80;99.90
2407;DHT22;37709;53.480;9.688;2023-04-03T06:09:56;-3.60;99.90
2407;DHT22;37709;53.480;9.688;2023-04-03T06:12:24;-3.50;99.90
2407;DHT22;37709;53.480;9.688;2023-04-03T06:14:52;-3.40;99.90
2407;DHT22;37709;53.480;9.688;2023-04-03T06:17:19;-3.30;99.90
2407;DHT22;37709;53.480;9.688;2023-04-03T06:19:47;-3.20;99.90
2407;DHT22;37709;53.480;9.688;2023-04-03T06:22:15;-3.10;99.90
2407;DHT22;37709;53.480;9.688;2023-04-03T06:24:43;-3.00;99.90
2407;DHT22;37709;53.480;9.688;2023-04-03T06:27:11;-3.00;99.90
2407;DHT22;37709;53.480;9.688;2023-04-03T06:29:40;-2.80;99.90
2407;DHT22;37709;53.480;9.688;2023-04-03T06:32:07;-2.60;99.90
2407;DHT22;37709;53.480;9.688;2023-04-03T06:34:34;-2.40;99.90
2407;DHT22;37709;53.480;9.688;2023-04-03T06:37:02;-2.30;99.90
2407;DHT22;37709;53.480;9.688;2023-04-03T06:39:30;-2.20;99.90
2407;DHT22;37709;53.480;9.688;2023-04-03T06:42:23;-2.00;99.90
2407;DHT22;37709;53.480;9.688;2023-04-03T06:44:59;-1.80;99.90
2407;DHT22;37709;53.480;9.688;2023-04-03T06:47:27;-1.40;99.90
2407;DHT22;37709;53.480;9.688;2023-04-03T06:49:54;-0.90;99.90
2407;DHT22;37709;53.480;9.688;2023-04-03T06:52:23;-0.30;99.90
2407;DHT22;37709;53.480;9.688;2023-04-03T06:54:50;0.50;99.90
2407;DHT22;37709;53.480;9.688;2023-04-03T06:57:24;1.60;99.90
2407;DHT22;37709;53.480;9.688;2023-04-03T06:59:51;2.90;99.90
2407;DHT22;37709;53.480;9.688;2023-04-03T07:02:19;4.30;99.90
2407;DHT22;37709;53.480;9.688;2023-04-03T07:04:48;5.80;99.90
2407;DHT22;37709;53.480;9.688;2023-04-03T07:07:16;7.20;99.90
2407;DHT22;37709;53.480;9.688;2023-04-03T07:09:44;8.20;99.90
2407;DHT22;37709;53.480;9.688;2023-04-03T07:12:12;9.00;99.90
2407;DHT22;37709;53.480;9.688;2023-04-03T07:14:39;9.70;99.90
2407;DHT22;37709;53.480;9.688;2023-04-03T07:17:12;10.30;99.90
2407;DHT22;37709;53.480;9.688;2023-04-03T07:19:39;10.80;99.90
2407;DHT22;37709;53.480;9.688;2023-04-03T07:22:07;11.30;99.90
2407;DHT22;37709;53.480;9.688;2023-04-03T07:24:35;11.80;99.90
2407;DHT22;37709;53.480;9.688;2023-04-03T07:27:02;12.30;99.90
2407;DHT22;37709;53.480;9.688;2023-04-03T07:29:35;12.70;99.90
2407;DHT22;37709;53.480;9.688;2023-04-03T07:32:02;13.00;99.90
2407;DHT22;37709;53.480;9.688;2023-04-03T07:34:30;13.50;99.90
2407;DHT22;37709;53.480;9.688;2023-04-03T07:36:57;14.00;99.90
2407;DHT22;37709;53.480;9.688;2023-04-03T07:39:25;14.50;99.90
2407;DHT22;37709;53.480;9.688;2023-04-03T07:41:53;14.80;99.90
2407;DHT22;37709;53.480;9.688;2023-04-03T07:44:21;15.20;99.90
2407;DHT22;37709;53.480;9.688;2023-04-03T07:46:48;15.60;99.40
2407;DHT22;37709;53.480;9.688;2023-04-03T07:49:18;15.90;98.30
2407;DHT22;37709;53.480;9.688;2023-04-03T07:51:45;16.30;96.90
2407;DHT22;37709;53.480;9.688;2023-04-03T07:54:13;16.80;96.60
2407;DHT22;37709;53.480;9.688;2023-04-03T07:56:41;17.10;93.10
2407;DHT22;37709;53.480;9.688;2023-04-03T07:59:10;17.50;91.60
2407;DHT22;37709;53.480;9.688;2023-04-03T08:01:38;18.10;90.50
2407;DHT22;37709;53.480;9.688;2023-04-03T08:04:06;18.10;85.50
2407;DHT22;37709;53.480;9.688;2023-04-03T08:06:34;18.60;85.90
2407;DHT22;37709;53.480;9.688;2023-04-03T08:09:16;19.10;88.90
2407;DHT22;37709;53.480;9.688;2023-04-03T08:11:43;19.50;81.80
2407;DHT22;37709;53.480;9.688;2023-04-03T08:14:13;19.60;78.40
2407;DHT22;37709;53.480;9.688;2023-04-03T08:16:47;19.60;75.00
2407;DHT22;37709;53.480;9.688;2023-04-03T08:19:15;19.90;74.70
2407;DHT22;37709;53.480;9.688;2023-04-03T08:21:56;20.50;73.00
2407;DHT22;37709;53.480;9.688;2023-04-03T08:24:25;20.60;74.00
2407;DHT22;37709;53.480;9.688;2023-04-03T08:26:53;21.40;69.50
2407;DHT22;37709;53.480;9.688;2023-04-03T08:29:20;21.70;60.20
2407;DHT22;37709;53.480;9.688;2023-04-03T08:31:48;19.10;58.20
2407;DHT22;37709;53.480;9.688;2023-04-03T08:34:17;19.20;62.80
2407;DHT22;37709;53.480;9.688;2023-04-03T08:36:45;20.10;59.60
2407;DHT22;37709;53.480;9.688;2023-04-03T08:39:13;19.10;56.40
2407;DHT22;37709;53.480;9.688;2023-04-03T08:41:42;17.90;60.90
2407;DHT22;37709;53.480;9.688;2023-04-03T08:44:24;16.10;58.30
2407;DHT22;37709;53.480;9.688;2023-04-03T08:47:02;14.10;61.20
2407;DHT22;37709;53.480;9.688;2023-04-03T08:49:59;13.10;66.60
2407;DHT22;37709;53.480;9.688;2023-04-03T08:52:41;13.80;67.20
2407;DHT22;37709;53.480;9.688;2023-04-03T08:55:24;17.90;61.50
2407;DHT22;37709;53.480;9.688;2023-04-03T08:58:19;20.00;55.50
2407;DHT22;37709;53.480;9.688;2023-04-03T09:00:58;21.70;54.70
2407;DHT22;37709;53.480;9.688;2023-04-03T09:03:30;22.60;49.40
2407;DHT22;37709;53.480;9.688;2023-04-03T09:06:13;23.30;47.50
2407;DHT22;37709;53.480;9.688;2023-04-03T09:08:46;24.90;47.90
2407;DHT22;37709;53.480;9.688;2023-04-03T09:11:52;25.80;44.10
2407;DHT22;37709;53.480;9.688;2023-04-03T09:22:13;28.70;39.40
2407;DHT22;37709;53.480;9.688;2023-04-03T09:24:41;29.20;34.10
2407;DHT22;37709;53.480;9.688;2023-04-03T09:27:13;30.10;35.90
2407;DHT22;37709;53.480;9.688;2023-04-03T09:32:31;31.30;33.30
2407;DHT22;37709;53.480;9.688;2023-04-03T09:37:46;31.80;31.10
2407;DHT22;37709;53.480;9.688;2023-04-03T09:43:01;31.40;28.70
2407;DHT22;37709;53.480;9.688;2023-04-03T09:45:31;31.50;30.90
2407;DHT22;37709;53.480;9.688;2023-04-03T09:48:16;30.80;30.80
2407;DHT22;37709;53.480;9.688;2023-04-03T09:53:32;29.50;30.50
2407;DHT22;37709;53.480;9.688;2023-04-03T09:56:01;27.10;29.90
2407;DHT22;37709;53.480;9.688;2023-04-03T09:58:38;27.40;31.60
2407;DHT22;37709;53.480;9.688;2023-04-03T10:01:29;27.20;31.90
2407;DHT22;37709;53.480;9.688;2023-04-03T10:06:32;31.50;30.00
2407;DHT22;37709;53.480;9.688;2023-04-03T10:09:05;30.90;29.90
2407;DHT22;37709;53.480;9.688;2023-04-03T10:11:32;31.80;27.90
2407;DHT22;37709;53.480;9.688;2023-04-03T10:14:02;30.20;27.20
2407;DHT22;37709;53.480;9.688;2023-04-03T10:19:39;24.70;29.10
2407;DHT22;37709;53.480;9.688;2023-04-03T10:25:15;26.10;30.40
2407;DHT22;37709;53.480;9.688;2023-04-03T10:28:11;26.30;27.60
2407;DHT22;37709;53.480;9.688;2023-04-03T10:31:03;27.70;28.60
2407;DHT22;37709;53.480;9.688;2023-04-03T10:39:18;30.50;28.10
2407;DHT22;37709;53.480;9.688;2023-04-03T10:44:59;32.60;27.20
2407;DHT22;37709;53.480;9.688;2023-04-03T10:47:54;30.30;26.10
2407;DHT22;37709;53.480;9.688;2023-04-03T10:50:39;27.20;28.20
2407;DHT22;37709;53.480;9.688;2023-04-03T10:56:15;23.00;33.00
2407;DHT22;37709;53.480;9.688;2023-04-03T10:58:52;21.60;34.00
2407;DHT22;37709;53.480;9.688;2023-04-03T11:01:26;20.60;34.70
2407;DHT22;37709;53.480;9.688;2023-04-03T11:03:58;21.80;34.90
2407;DHT22;37709;53.480;9.688;2023-04-03T11:06:41;21.30;33.30
2407;DHT22;37709;53.480;9.688;2023-04-03T11:09:27;20.30;35.10
2407;DHT22;37709;53.480;9.688;2023-04-03T11:12:18;21.50;33.90
2407;DHT22;37709;53.480;9.688;2023-04-03T11:14:50;19.90;36.20
2407;DHT22;37709;53.480;9.688;2023-04-03T11:22:35;22.00;35.20
2407;DHT22;37709;53.480;9.688;2023-04-03T11:25:21;21.60;33.60
2407;DHT22;37709;53.480;9.688;2023-04-03T11:28:05;24.70;33.30
2407;DHT22;37709;53.480;9.688;2023-04-03T11:30:49;28.80;28.30
2407;DHT22;37709;53.480;9.688;2023-04-03T11:36:34;26.60;27.30
2407;DHT22;37709;53.480;9.688;2023-04-03T11:39:30;23.50;31.10
2407;DHT22;37709;53.480;9.688;2023-04-03T11:42:22;21.80;34.40
2407;DHT22;37709;53.480;9.688;2023-04-03T11:44:52;26.70;33.50
2407;DHT22;37709;53.480;9.688;2023-04-03T11:47:55;27.10;29.80
2407;DHT22;37709;53.480;9.688;2023-04-03T12:26:27;34.50;22.20
2407;DHT22;37709;53.480;9.688;2023-04-03T12:34:53;29.70;27.40
2407;DHT22;37709;53.480;9.688;2023-04-03T12:51:17;36.70;22.50
2407;DHT22;37709;53.480;9.688;2023-04-03T12:53:45;36.50;21.60
2407;DHT22;37709;53.480;9.688;2023-04-03T12:56:30;31.90;23.80
2407;DHT22;37709;53.480;9.688;2023-04-03T12:59:29;28.90;27.10
2407;DHT22;37709;53.480;9.688;2023-04-03T13:01:59;27.90;27.80
2407;DHT22;37709;53.480;9.688;2023-04-03T13:04:31;31.10;25.50
2407;DHT22;37709;53.480;9.688;2023-04-03T13:06:59;30.30;24.30
2407;DHT22;37709;53.480;9.688;2023-04-03T13:09:28;27.80;25.50
2407;DHT22;37709;53.480;9.688;2023-04-03T13:12:21;25.70;25.90
2407;DHT22;37709;53.480;9.688;2023-04-03T13:14:57;26.40;27.20
2407;DHT22;37709;53.480;9.688;2023-04-03T13:17:29;27.80;25.00
2407;DHT22;37709;53.480;9.688;2023-04-03T13:20:13;27.20;26.80
2407;DHT22;37709;53.480;9.688;2023-04-03T13:22:49;29.50;28.10
2407;DHT22;37709;53.480;9.688;2023-04-03T13:25:20;27.40;27.40
2407;DHT22;37709;53.480;9.688;2023-04-03T13:27:48;26.20;28.60
2407;DHT22;37709;53.480;9.688;2023-04-03T13:32:54;22.80;29.20
2407;DHT22;37709;53.480;9.688;2023-04-03T13:35:27;21.70;29.80
2407;DHT22;37709;53.480;9.688;2023-04-03T13:38:34;23.80;30.20
2407;DHT22;37709;53.480;9.688;2023-04-03T13:40:57;26.30;26.70
2407;DHT22;37709;53.480;9.688;2023-04-03T13:43:29;28.10;25.80
2407;DHT22;37709;53.480;9.688;2023-04-03T13:49:19;28.00;24.80
2407;DHT22;37709;53.480;9.688;2023-04-03T13:51:49;24.60;25.70
2407;DHT22;37709;53.480;9.688;2023-04-03T13:54:38;25.00;27.80
2407;DHT22;37709;53.480;9.688;2023-04-03T13:57:14;28.30;25.80
2407;DHT22;37709;53.480;9.688;2023-04-03T14:03:55;27.90;23.60
2407;DHT22;37709;53.480;9.688;2023-04-03T14:06:21;27.30;24.10
2407;DHT22;37709;53.480;9.688;2023-04-03T14:08:49;26.20;24.30
2407;DHT22;37709;53.480;9.688;2023-04-03T14:11:28;23.90;27.50
2407;DHT22;37709;53.480;9.688;2023-04-03T14:13:58;22.10;27.90
2407;DHT22;37709;53.480;9.688;2023-04-03T14:16:32;24.30;29.30
2407;DHT22;37709;53.480;9.688;2023-04-03T14:19:04;26.20;26.80
2407;DHT22;37709;53.480;9.688;2023-04-03T14:21:31;27.60;27.00
2407;DHT22;37709;53.480;9.688;2023-04-03T14:24:25;28.30;26.20
2407;DHT22;37709;53.480;9.688;2023-04-03T14:26:54;27.80;25.60
2407;DHT22;37709;53.480;9.688;2023-04-03T14:29:22;25.60;26.10
2407;DHT22;37709;53.480;9.688;2023-04-03T14:31:50;23.90;27.30
2407;DHT22;37709;53.480;9.688;2023-04-03T14:34:55;24.50;26.60
2407;DHT22;37709;53.480;9.688;2023-04-03T14:37:25;22.80;26.70
2407;DHT22;37709;53.480;9.688;2023-04-03T14:39:56;21.40;28.60
2407;DHT22;37709;53.480;9.688;2023-04-03T14:42:31;22.40;27.80
2407;DHT22;37709;53.480;9.688;2023-04-03T14:45:05;23.10;26.70
2407;DHT22;37709;53.480;9.688;2023-04-03T14:47:33;23.30;26.20
2407;DHT22;37709;53.480;9.688;2023-04-03T14:50:06;23.60;26.70
2407;DHT22;37709;53.480;9.688;2023-04-03T14:52:35;24.00;27.40
2407;DHT22;37709;53.480;9.688;2023-04-03T14:55:04;24.00;27.10
2407;DHT22;37709;53.480;9.688;2023-04-03T14:57:38;23.60;26.80
2407;DHT22;37709;53.480;9.688;2023-04-03T15:00:12;22.70;25.70
2407;DHT22;37709;53.480;9.688;2023-04-03T15:02:40;21.80;27.20
2407;DHT22;37709;53.480;9.688;2023-04-03T15:05:15;21.50;27.20
2407;DHT22;37709;53.480;9.688;2023-04-03T15:08:03;21.30;28.40
2407;DHT22;37709;53.480;9.688;2023-04-03T15:10:31;20.10;29.30
2407;DHT22;37709;53.480;9.688;2023-04-03T15:12:58;20.00;30.10
2407;DHT22;37709;53.480;9.688;2023-04-03T15:15:28;18.90;29.90
2407;DHT22;37709;53.480;9.688;2023-04-03T15:17:57;17.90;30.10
2407;DHT22;37709;53.480;9.688;2023-04-03T15:20:50;17.70;30.70
2407;DHT22;37709;53.480;9.688;2023-04-03T15:23:18;17.50;30.80
2407;DHT22;37709;53.480;9.688;2023-04-03T15:25:47;17.40;31.50
2407;DHT22;37709;53.480;9.688;2023-04-03T15:28:31;17.20;32.40
2407;DHT22;37709;53.480;9.688;2023-04-03T15:31:00;16.90;32.50
2407;DHT22;37709;53.480;9.688;2023-04-03T15:33:28;16.50;33.20
2407;DHT22;37709;53.480;9.688;2023-04-03T15:35:55;16.70;32.70
2407;DHT22;37709;53.480;9.688;2023-04-03T15:38:34;16.80;32.30
2407;DHT22;37709;53.480;9.688;2023-04-03T15:41:02;16.30;31.90
2407;DHT22;37709;53.480;9.688;2023-04-03T15:43:30;15.80;31.60
2407;DHT22;37709;53.480;9.688;2023-04-03T15:45:59;15.50;32.50
2407;DHT22;37709;53.480;9.688;2023-04-03T15:48:27;15.70;33.60
2407;DHT22;37709;53.480;9.688;2023-04-03T15:50:55;15.60;35.00
2407;DHT22;37709;53.480;9.688;2023-04-03T15:53:25;15.40;36.30
2407;DHT22;37709;53.480;9.688;2023-04-03T15:55:53;15.10;36.00
2407;DHT22;37709;53.480;9.688;2023-04-03T15:58:21;14.60;35.40
2407;DHT22;37709;53.480;9.688;2023-04-03T16:00:48;14.30;36.90
2407;DHT22;37709;53.480;9.688;2023-04-03T16:03:21;14.30;37.50
2407;DHT22;37709;53.480;9.688;2023-04-03T16:05:49;14.00;38.20
2407;DHT22;37709;53.480;9.688;2023-04-03T16:08:19;14.30;38.30
2407;DHT22;37709;53.480;9.688;2023-04-03T16:10:47;14.50;38.30
2407;DHT22;37709;53.480;9.688;2023-04-03T16:13:14;14.70;38.90
2407;DHT22;37709;53.480;9.688;2023-04-03T16:15:45;14.90;40.00
2407;DHT22;37709;53.480;9.688;2023-04-03T16:18:13;14.80;38.90
2407;DHT22;37709;53.480;9.688;2023-04-03T16:20:41;14.50;37.80
2407;DHT22;37709;53.480;9.688;2023-04-03T16:23:08;14.00;37.20
2407;DHT22;37709;53.480;9.688;2023-04-03T16:25:35;13.80;36.90
2407;DHT22;37709;53.480;9.688;2023-04-03T16:28:03;13.40;37.50
2407;DHT22;37709;53.480;9.688;2023-04-03T16:30:30;12.90;37.20
2407;DHT22;37709;53.480;9.688;2023-04-03T16:32:58;12.30;37.30
2407;DHT22;37709;53.480;9.688;2023-04-03T16:35:26;11.80;39.10
2407;DHT22;37709;53.480;9.688;2023-04-03T16:37:54;11.70;39.60
2407;DHT22;37709;53.480;9.688;2023-04-03T16:40:22;11.50;39.90
2407;DHT22;37709;53.480;9.688;2023-04-03T16:42:49;11.40;40.80
2407;DHT22;37709;53.480;9.688;2023-04-03T16:45:16;11.00;40.50
2407;DHT22;37709;53.480;9.688;2023-04-03T16:47:44;10.50;41.50
2407;DHT22;37709;53.480;9.688;2023-04-03T16:50:13;10.10;42.20
2407;DHT22;37709;53.480;9.688;2023-04-03T16:52:40;9.80;44.40
2407;DHT22;37709;53.480;9.688;2023-04-03T16:55:08;9.60;45.50
2407;DHT22;37709;53.480;9.688;2023-04-03T16:57:36;9.60;46.30
2407;DHT22;37709;53.480;9.688;2023-04-03T17:00:06;9.60;47.30
2407;DHT22;37709;53.480;9.688;2023-04-03T17:02:34;9.70;48.10
2407;DHT22;37709;53.480;9.688;2023-04-03T17:05:02;9.60;48.10
2407;DHT22;37709;53.480;9.688;2023-04-03T17:07:31;9.70;48.00
2407;DHT22;37709;53.480;9.688;2023-04-03T17:09:59;9.60;48.40
2407;DHT22;37709;53.480;9.688;2023-04-03T17:12:26;9.50;49.00
2407;DHT22;37709;53.480;9.688;2023-04-03T17:14:58;9.30;48.60
2407;DHT22;37709;53.480;9.688;2023-04-03T17:17:25;9.00;48.80
2407;DHT22;37709;53.480;9.688;2023-04-03T17:19:55;8.80;49.30
2407;DHT22;37709;53.480;9.688;2023-04-03T17:22:22;8.40;48.80
2407;DHT22;37709;53.480;9.688;2023-04-03T17:24:52;8.10;49.80
2407;DHT22;37709;53.480;9.688;2023-04-03T17:27:19;7.90;51.20
2407;DHT22;37709;53.480;9.688;2023-04-03T17:29:47;7.70;51.60
2407;DHT22;37709;53.480;9.688;2023-04-03T17:32:14;7.50;52.10
2407;DHT22;37709;53.480;9.688;2023-04-03T17:34:45;7.30;52.40
2407;DHT22;37709;53.480;9.688;2023-04-03T17:37:13;7.00;53.50
2407;DHT22;37709;53.480;9.688;2023-04-03T17:40:08;6.80;53.90
2407;DHT22;37709;53.480;9.688;2023-04-03T17:42:35;6.60;55.10
2407;DHT22;37709;53.480;9.688;2023-04-03T17:45:03;6.40;55.40
2407;DHT22;37709;53.480;9.688;2023-04-03T17:47:33;6.10;55.80
2407;DHT22;37709;53.480;9.688;2023-04-03T17:50:00;5.80;56.40
2407;DHT22;37709;53.480;9.688;2023-04-03T17:52:27;5.60;57.50
2407;DHT22;37709;53.480;9.688;2023-04-03T17:54:54;5.40;57.80
2407;DHT22;37709;53.480;9.688;2023-04-03T17:57:22;5.30;58.30
2407;DHT22;37709;53.480;9.688;2023-04-03T17:59:49;5.10;58.70
2407;DHT22;37709;53.480;9.688;2023-04-03T18:02:46;4.90;59.60
2407;DHT22;37709;53.480;9.688;2023-04-03T18:05:14;4.60;60.30
2407;DHT22;37709;53.480;9.688;2023-04-03T18:07:43;4.50;61.10
2407;DHT22;37709;53.480;9.688;2023-04-03T18:10:10;4.40;62.20